Time;durP1;ratioP1;P1;durP2;ratioP2;P2;SDS_P1;SDS_P2;PMS_P1;PMS_P2;Temp;Humidity;BMP_temperature;BMP_pressure;BME280_temperature;BME280_humidity;BME280_pressure;Samples;Min_cycle;Max_cycle;Signal;HPM_P1;HPM_P2
2022/12/04 00:01:21;;;;;;;51.45;24.30;;;5.80;99.90;;;;;;5048289;28;20049;-74
2022/12/04 00:03:50;;;;;;;47.60;22.85;;;5.80;99.90;;;;;;5060020;28;20033;-74
2022/12/04 00:06:17;;;;;;;47.45;21.10;;;5.80;99.90;;;;;;5043017;28;20100;-74
2022/12/04 00:08:44;;;;;;;47.20;22.63;;;5.80;99.90;;;;;;5041159;28;20160;-74
2022/12/04 00:11:12;;;;;;;49.83;22.88;;;5.80;99.90;;;;;;5042181;28;20021;-74
2022/12/04 00:13:38;;;;;;;48.35;21.98;;;5.90;99.90;;;;;;5048251;28;20062;-74
2022/12/04 00:16:18;;;;;;;49.25;21.55;;;5.80;99.90;;;;;;5040295;28;20037;-75
2022/12/04 00:18:44;;;;;;;49.92;21.85;;;5.80;99.90;;;;;;5044396;28;20091;-75
2022/12/04 00:21:12;;;;;;;46.17;20.05;;;5.80;99.90;;;;;;5052815;28;20430;-74
2022/12/04 00:23:38;;;;;;;47.05;20.63;;;5.80;99.90;;;;;;5043045;28;20108;-75
2022/12/04 00:26:07;;;;;;;49.10;20.20;;;5.90;99.90;;;;;;5050124;28;20041;-74
2022/12/04 00:28:33;;;;;;;46.17;20.20;;;5.90;99.90;;;;;;5043025;28;20041;-75
2022/12/04 00:30:59;;;;;;;45.97;19.48;;;5.90;99.90;;;;;;5040299;28;22032;-74
2022/12/04 00:33:25;;;;;;;46.80;20.25;;;5.90;99.90;;;;;;5048638;28;20032;-74
2022/12/04 00:35:58;;;;;;;48.60;20.65;;;5.90;99.90;;;;;;5046466;28;20045;-75
2022/12/04 00:38:24;;;;;;;42.38;18.52;;;5.90;99.90;;;;;;5048541;28;20044;-75
2022/12/04 00:40:51;;;;;;;41.58;18.65;;;5.90;99.90;;;;;;5046714;28;20033;-76
2022/12/04 00:43:16;;;;;;;46.78;20.27;;;5.90;99.90;;;;;;5053046;28;20148;-74
2022/12/04 00:45:42;;;;;;;47.33;19.50;;;5.80;99.90;;;;;;5047860;28;20143;-74
2022/12/04 00:48:08;;;;;;;47.10;19.15;;;5.80;99.90;;;;;;5054589;28;20037;-74
2022/12/04 00:50:34;;;;;;;44.33;19.55;;;5.80;99.90;;;;;;5052071;28;20036;-74
2022/12/04 00:53:00;;;;;;;44.88;19.15;;;5.80;99.90;;;;;;5055401;28;20134;-74
2022/12/04 00:55:25;;;;;;;45.55;18.05;;;5.80;99.90;;;;;;5049170;28;20149;-74
2022/12/04 00:57:51;;;;;;;46.88;18.85;;;5.80;99.90;;;;;;5071952;28;20025;-74
2022/12/04 01:00:17;;;;;;;45.55;18.65;;;5.80;99.90;;;;;;5049618;28;20036;-74
2022/12/04 01:02:43;;;;;;;44.25;18.95;;;5.80;99.90;;;;;;5055686;28;20037;-74
2022/12/04 01:05:09;;;;;;;47.58;19.42;;;5.80;99.90;;;;;;5061730;28;20031;-75
2022/12/04 01:07:35;;;;;;;44.58;19.25;;;5.80;99.90;;;;;;5046377;28;20048;-75
2022/12/04 01:10:01;;;;;;;42.92;18.33;;;5.80;99.90;;;;;;5047167;28;20063;-76
2022/12/04 01:12:26;;;;;;;50.13;19.17;;;5.70;99.90;;;;;;5052184;28;20041;-74
2022/12/04 01:14:52;;;;;;;41.85;18.20;;;5.80;99.90;;;;;;5049021;28;20358;-75
2022/12/04 01:17:17;;;;;;;44.25;18.42;;;5.80;99.90;;;;;;5058778;28;20067;-75
2022/12/04 01:19:43;;;;;;;43.20;17.98;;;5.70;99.90;;;;;;5039358;28;20079;-75
2022/12/04 01:22:09;;;;;;;39.60;19.05;;;5.70;99.90;;;;;;5043152;28;20029;-75
2022/12/04 01:24:34;;;;;;;47.78;19.13;;;5.70;99.90;;;;;;5055524;28;20025;-74
2022/12/04 01:27:00;;;;;;;43.83;18.60;;;5.70;99.90;;;;;;5044533;28;20398;-75
2022/12/04 01:29:26;;;;;;;43.67;19.40;;;5.70;99.90;;;;;;5054046;28;20087;-75
2022/12/04 01:31:51;;;;;;;46.28;18.08;;;5.70;99.90;;;;;;5074860;28;20094;-75
2022/12/04 01:34:17;;;;;;;44.00;18.48;;;5.70;99.90;;;;;;5036740;28;20111;-74
2022/12/04 01:36:42;;;;;;;42.70;18.15;;;5.60;99.90;;;;;;5053028;28;20047;-75
2022/12/04 01:39:08;;;;;;;43.80;19.45;;;5.60;99.90;;;;;;5065439;28;20089;-75
2022/12/04 01:41:34;;;;;;;44.53;18.60;;;5.60;99.90;;;;;;5045775;28;20112;-75
2022/12/04 01:44:15;;;;;;;42.95;17.65;;;5.60;99.90;;;;;;5040283;28;20046;-76
2022/12/04 01:46:43;;;;;;;43.40;18.70;;;5.60;99.90;;;;;;5045334;28;20063;-75
2022/12/04 01:49:35;;;;;;;43.63;18.85;;;5.60;99.90;;;;;;5032088;28;20450;-75
2022/12/04 01:52:08;;;;;;;41.33;18.02;;;5.60;99.90;;;;;;5024101;28;20034;-75
2022/12/04 01:54:38;;;;;;;40.88;17.50;;;5.50;99.90;;;;;;5037000;28;20912;-75
2022/12/04 01:57:18;;;;;;;38.60;17.25;;;5.50;99.90;;;;;;5045632;28;20045;-75
2022/12/04 02:00:04;;;;;;;39.70;18.40;;;5.50;99.90;;;;;;5030701;28;20030;-75
2022/12/04 02:02:35;;;;;;;42.50;18.63;;;5.50;99.90;;;;;;5036198;28;20449;-74
2022/12/04 02:05:03;;;;;;;37.10;17.50;;;5.50;99.90;;;;;;5045158;28;20028;-75
2022/12/04 02:07:29;;;;;;;38.80;17.48;;;5.50;99.90;;;;;;5032959;28;20120;-76
2022/12/04 02:09:54;;;;;;;43.67;18.40;;;5.50;99.90;;;;;;5035858;28;20124;-74
2022/12/04 02:12:47;;;;;;;38.55;17.15;;;5.50;99.90;;;;;;5031720;28;20036;-75
2022/12/04 02:15:15;;;;;;;37.75;16.52;;;5.50;99.90;;;;;;5025902;28;20086;-74
2022/12/04 02:17:58;;;;;;;37.63;17.90;;;5.50;99.90;;;;;;5042596;28;20052;-74
2022/12/04 02:20:45;;;;;;;40.85;18.27;;;5.50;99.90;;;;;;5047947;28;20027;-75
2022/12/04 02:23:48;;;;;;;42.72;19.15;;;5.50;99.90;;;;;;5032743;28;20037;-74
2022/12/04 02:26:23;;;;;;;40.05;18.63;;;5.60;99.90;;;;;;5033290;28;20057;-76
2022/12/04 02:29:25;;;;;;;41.15;20.10;;;5.50;99.90;;;;;;5037393;28;20028;-75
2022/12/04 02:32:23;;;;;;;43.60;19.50;;;5.60;99.90;;;;;;5029276;28;20036;-76
2022/12/04 02:34:56;;;;;;;43.45;19.50;;;5.60;99.90;;;;;;5034876;28;20041;-76
2022/12/04 02:37:47;;;;;;;39.92;19.17;;;5.50;99.90;;;;;;5033990;28;20093;-75
2022/12/04 02:40:20;;;;;;;45.03;19.38;;;5.50;99.90;;;;;;5024588;28;20115;-75
2022/12/04 02:42:59;;;;;;;43.78;20.00;;;5.50;99.90;;;;;;5041586;28;20479;-76
2022/12/04 02:45:31;;;;;;;39.20;20.13;;;5.50;99.90;;;;;;5043219;28;20039;-75
2022/12/04 02:47:59;;;;;;;46.85;21.50;;;5.40;99.90;;;;;;5031684;28;20383;-75
2022/12/04 02:50:26;;;;;;;48.13;20.67;;;5.50;99.90;;;;;;5032464;28;20037;-75
2022/12/04 02:53:07;;;;;;;45.10;21.60;;;5.50;99.90;;;;;;5038967;28;20029;-75
2022/12/04 02:55:53;;;;;;;46.10;21.75;;;5.50;99.90;;;;;;5028372;28;20175;-75
2022/12/04 02:58:45;;;;;;;41.17;19.60;;;5.50;99.90;;;;;;5037983;28;20029;-75
2022/12/04 03:01:18;;;;;;;46.05;20.17;;;5.50;99.90;;;;;;5029608;28;20037;-74
2022/12/04 03:03:57;;;;;;;48.85;22.35;;;5.50;99.90;;;;;;5026422;28;20037;-75
2022/12/04 03:06:26;;;;;;;48.95;22.55;;;5.60;99.90;;;;;;5033821;28;20052;-76
2022/12/04 03:09:01;;;;;;;48.40;21.55;;;5.60;99.90;;;;;;5037325;28;20026;-75
2022/12/04 03:11:30;;;;;;;48.97;22.98;;;5.50;99.90;;;;;;5037271;28;20033;-76
2022/12/04 03:14:07;;;;;;;51.65;23.15;;;5.50;99.90;;;;;;5027773;28;20044;-75
2022/12/04 03:16:38;;;;;;;51.92;25.27;;;5.50;99.90;;;;;;5039443;28;20110;-75
2022/12/04 03:19:14;;;;;;;50.60;23.83;;;5.50;99.90;;;;;;5046106;28;20047;-74
2022/12/04 03:21:47;;;;;;;49.78;22.85;;;5.50;99.90;;;;;;5050183;28;20052;-74
2022/12/04 03:24:18;;;;;;;45.40;22.60;;;5.50;99.90;;;;;;5043776;28;20083;-75
2022/12/04 03:26:55;;;;;;;48.70;23.42;;;5.40;99.90;;;;;;5028622;28;20083;-75
2022/12/04 03:29:29;;;;;;;47.53;22.23;;;5.40;99.90;;;;;;5031906;28;20029;-75
2022/12/04 03:32:10;;;;;;;50.58;23.20;;;5.40;99.90;;;;;;5045643;28;20431;-76
2022/12/04 03:35:10;;;;;;;42.10;22.13;;;5.40;99.90;;;;;;5039145;28;20029;-75
2022/12/04 03:37:51;;;;;;;44.15;22.38;;;5.40;99.90;;;;;;5041452;28;20558;-76
2022/12/04 03:40:25;;;;;;;49.22;22.13;;;5.40;99.90;;;;;;5043243;28;20029;-76
2022/12/04 03:43:03;;;;;;;42.50;22.60;;;5.40;99.90;;;;;;5047321;28;20041;-75
2022/12/04 03:46:09;;;;;;;46.60;22.48;;;5.40;99.90;;;;;;5046762;28;20036;-75
2022/12/04 03:48:49;;;;;;;45.42;21.77;;;5.50;99.90;;;;;;5038519;28;20061;-75
2022/12/04 03:51:24;;;;;;;41.65;22.38;;;5.50;99.90;;;;;;5050717;28;20096;-75
2022/12/04 03:54:12;;;;;;;39.60;21.25;;;5.50;99.90;;;;;;5055375;28;20060;-74
2022/12/04 03:56:46;;;;;;;38.80;19.60;;;5.50;99.90;;;;;;5034458;28;20086;-76
2022/12/04 03:59:21;;;;;;;41.42;20.08;;;5.40;99.90;;;;;;5050626;28;20028;-74
2022/12/04 04:01:48;;;;;;;37.30;19.60;;;5.50;99.90;;;;;;5046795;28;20060;-75
2022/12/04 04:04:21;;;;;;;39.63;19.50;;;5.50;99.90;;;;;;5049966;28;20033;-76
2022/12/04 04:06:55;;;;;;;38.17;20.48;;;5.50;99.90;;;;;;5049505;28;20552;-76
2022/12/04 04:09:25;;;;;;;38.15;19.92;;;5.40;99.90;;;;;;5045139;28;20032;-76
2022/12/04 04:12:07;;;;;;;38.40;20.13;;;5.40;99.90;;;;;;5040976;28;20036;-75
2022/12/04 04:25:51;;;;;;;38.42;19.45;;;5.40;99.90;;;;;;5043769;28;20079;-75
2022/12/04 04:28:29;;;;;;;35.22;19.45;;;5.40;99.90;;;;;;5052177;28;20380;-75
2022/12/04 04:31:08;;;;;;;37.72;20.15;;;5.40;99.90;;;;;;5056129;28;20036;-75
2022/12/04 04:34:00;;;;;;;33.53;19.02;;;5.50;99.90;;;;;;5040580;28;20033;-75
2022/12/04 04:36:34;;;;;;;40.65;20.17;;;5.40;99.90;;;;;;5041798;28;20060;-75
2022/12/04 04:39:14;;;;;;;40.28;20.70;;;5.40;99.90;;;;;;5038804;28;20064;-75
2022/12/04 04:41:49;;;;;;;;;;;5.40;99.90;;;;;;5035060;28;20151;-75
2022/12/04 04:44:33;;;;;;;38.55;19.80;;;5.40;99.90;;;;;;5035932;28;20411;-75
2022/12/04 04:47:02;;;;;;;41.88;20.42;;;5.40;99.90;;;;;;5042966;28;20040;-79
2022/12/04 04:49:32;;;;;;;38.70;19.33;;;5.50;99.90;;;;;;5063758;28;20096;-74
2022/12/04 04:51:58;;;;;;;40.10;20.10;;;5.50;99.90;;;;;;5049968;28;20052;-75
2022/12/04 04:54:26;;;;;;;34.83;18.13;;;5.50;99.90;;;;;;5030922;28;20166;-74
2022/12/04 04:56:52;;;;;;;34.75;18.50;;;5.50;99.90;;;;;;5042117;28;20069;-76
2022/12/04 04:59:18;;;;;;;35.30;17.55;;;5.50;99.90;;;;;;5047275;28;20084;-74
2022/12/04 05:01:45;;;;;;;32.85;17.67;;;5.50;99.90;;;;;;5045652;28;20044;-75
2022/12/04 05:04:10;;;;;;;35.40;18.02;;;5.50;99.90;;;;;;5043117;28;20024;-75
2022/12/04 05:06:36;;;;;;;38.92;19.10;;;5.50;99.90;;;;;;5052969;28;20036;-76
2022/12/04 05:09:02;;;;;;;32.97;18.05;;;5.50;99.90;;;;;;5045264;28;20100;-75
2022/12/04 05:11:28;;;;;;;34.45;17.25;;;5.50;99.90;;;;;;5027702;28;20033;-75
2022/12/04 05:13:54;;;;;;;39.28;18.83;;;5.50;99.90;;;;;;5038793;28;20036;-75
2022/12/04 05:16:19;;;;;;;34.15;17.25;;;5.50;99.90;;;;;;5040156;28;20041;-75
2022/12/04 05:19:52;;;;;;;33.92;18.08;;;5.50;99.90;;;;;;5039362;28;20041;-75
2022/12/04 05:21:32;;;;;;;35.45;19.27;;;5.50;99.90;;;;;;5047075;28;20502;-75
2022/12/04 05:23:57;;;;;;;36.95;18.50;;;5.50;99.90;;;;;;5030045;28;20112;-76
2022/12/04 05:26:23;;;;;;;35.75;19.38;;;5.50;99.90;;;;;;5031474;28;20646;-75
2022/12/04 05:28:49;;;;;;;37.45;20.13;;;5.50;99.90;;;;;;5044645;28;20044;-75
2022/12/04 05:31:15;;;;;;;35.65;18.98;;;5.40;99.90;;;;;;5033584;28;20075;-75
2022/12/04 05:33:40;;;;;;;39.78;18.90;;;5.40;99.90;;;;;;5032914;28;20031;-74
2022/12/04 05:36:08;;;;;;;37.35;19.17;;;5.50;99.90;;;;;;5030776;28;20033;-75
2022/12/04 05:38:34;;;;;;;37.42;19.45;;;5.40;99.90;;;;;;5031123;28;20387;-77
2022/12/04 05:41:02;;;;;;;37.88;18.25;;;5.40;99.90;;;;;;5027174;28;20037;-75
2022/12/04 05:43:28;;;;;;;36.67;18.67;;;5.40;99.90;;;;;;5041641;28;20041;-74
2022/12/04 05:45:54;;;;;;;37.30;18.38;;;5.40;99.90;;;;;;5047588;28;20033;-74
2022/12/04 05:48:19;;;;;;;36.58;18.50;;;5.40;99.90;;;;;;5037677;28;20057;-75
2022/12/04 05:50:45;;;;;;;38.10;19.08;;;5.40;99.90;;;;;;5042125;28;20024;-75
2022/12/04 05:53:11;;;;;;;38.42;17.48;;;5.30;99.90;;;;;;5043166;28;20033;-75
2022/12/04 05:55:36;;;;;;;31.98;17.23;;;5.30;99.90;;;;;;5028494;28;20037;-75
2022/12/04 05:58:02;;;;;;;34.30;18.00;;;5.30;99.90;;;;;;5038249;28;20136;-74
2022/12/04 06:00:28;;;;;;;32.45;16.95;;;5.30;99.90;;;;;;5047632;28;20051;-74
2022/12/04 06:02:54;;;;;;;31.17;16.88;;;5.30;99.90;;;;;;5044643;28;20033;-75
2022/12/04 06:05:20;;;;;;;34.45;17.77;;;5.30;99.90;;;;;;5027689;28;20044;-75
2022/12/04 06:07:45;;;;;;;28.33;15.60;;;5.20;99.90;;;;;;5070138;28;20033;-74
2022/12/04 06:10:11;;;;;;;28.52;15.82;;;5.20;99.90;;;;;;5040380;28;20029;-75
2022/12/04 06:12:36;;;;;;;28.60;13.82;;;5.20;99.90;;;;;;5032079;28;20030;-74
2022/12/04 06:15:02;;;;;;;24.55;13.65;;;5.20;99.90;;;;;;5033946;28;20456;-75
2022/12/04 06:17:28;;;;;;;27.83;14.82;;;5.20;99.90;;;;;;5037992;28;20032;-76
2022/12/04 06:19:54;;;;;;;26.50;14.40;;;5.10;99.90;;;;;;5043284;28;20033;-74
2022/12/04 06:22:20;;;;;;;25.05;14.02;;;5.10;99.90;;;;;;5037702;28;20028;-75
2022/12/04 06:24:46;;;;;;;25.73;13.75;;;5.10;99.90;;;;;;5026529;28;20033;-75
2022/12/04 06:27:12;;;;;;;23.67;12.90;;;5.10;99.90;;;;;;5041666;28;20807;-75
2022/12/04 06:29:38;;;;;;;28.67;13.43;;;5.00;99.90;;;;;;5042457;28;20036;-75
2022/12/04 06:32:03;;;;;;;22.23;11.32;;;5.00;99.90;;;;;;5039686;28;20037;-75
2022/12/04 06:34:29;;;;;;;23.33;12.07;;;5.00;99.90;;;;;;5034707;28;20472;-75
2022/12/04 06:36:55;;;;;;;23.58;12.32;;;5.00;99.90;;;;;;5044356;28;20045;-75
2022/12/04 06:39:20;;;;;;;23.23;12.32;;;5.00;99.90;;;;;;5030104;28;20091;-76
2022/12/04 06:41:46;;;;;;;22.85;12.65;;;5.10;99.90;;;;;;5049410;28;20381;-75
2022/12/04 06:44:13;;;;;;;22.23;12.70;;;5.10;99.90;;;;;;5038868;28;20066;-76
2022/12/04 06:46:39;;;;;;;21.52;12.05;;;5.00;99.90;;;;;;5040226;28;20033;-75
2022/12/04 06:49:05;;;;;;;24.98;13.27;;;5.10;99.90;;;;;;5025366;28;20033;-76
2022/12/04 06:51:34;;;;;;;22.00;11.93;;;5.00;99.90;;;;;;5034093;28;20036;-75
2022/12/04 06:54:00;;;;;;;24.05;11.38;;;5.00;99.90;;;;;;5030102;28;20106;-76
2022/12/04 06:56:27;;;;;;;22.10;12.00;;;5.00;99.90;;;;;;5042728;28;20038;-75
2022/12/04 06:58:55;;;;;;;23.08;11.75;;;5.00;99.90;;;;;;5050273;28;20559;-75
2022/12/04 07:01:23;;;;;;;23.88;12.48;;;5.00;99.90;;;;;;5041532;28;20064;-75
2022/12/04 07:03:49;;;;;;;23.15;12.35;;;5.00;99.90;;;;;;5030185;28;20049;-74
2022/12/04 07:06:25;;;;;;;25.27;12.38;;;5.00;99.90;;;;;;5036210;28;20253;-75
2022/12/04 07:08:58;;;;;;;22.17;11.90;;;5.00;99.90;;;;;;5037400;28;20052;-74
2022/12/04 07:11:24;;;;;;;25.25;12.38;;;4.90;99.90;;;;;;5037436;28;20136;-74
2022/12/04 07:13:50;;;;;;;23.90;12.32;;;4.90;99.90;;;;;;5037067;28;20450;-75
2022/12/04 07:16:18;;;;;;;23.58;12.65;;;4.90;99.90;;;;;;5023841;28;20599;-74
2022/12/04 07:18:44;;;;;;;26.88;13.20;;;4.90;99.90;;;;;;5035388;28;20025;-76
2022/12/04 07:21:16;;;;;;;25.45;13.32;;;4.90;99.90;;;;;;5034254;28;20079;-74
2022/12/04 07:23:42;;;;;;;26.08;12.77;;;4.90;99.90;;;;;;5036599;28;20063;-74
2022/12/04 07:26:10;;;;;;;27.17;12.82;;;4.90;99.90;;;;;;5037063;28;20373;-75
2022/12/04 07:28:36;;;;;;;25.58;12.23;;;4.90;99.90;;;;;;5026307;28;20075;-74
2022/12/04 07:31:04;;;;;;;28.30;12.73;;;4.90;99.90;;;;;;5036073;28;20454;-74
2022/12/04 07:33:29;;;;;;;23.23;12.57;;;4.90;99.90;;;;;;5040326;28;20020;-75
2022/12/04 07:36:00;;;;;;;26.88;13.07;;;4.90;99.90;;;;;;5039361;28;20095;-74
2022/12/04 07:38:27;;;;;;;26.00;12.55;;;4.80;99.90;;;;;;5053523;28;20033;-75
2022/12/04 07:40:56;;;;;;;25.30;12.68;;;4.90;99.90;;;;;;5037849;28;20439;-75
2022/12/04 07:43:22;;;;;;;24.35;12.38;;;4.80;99.90;;;;;;5035390;28;20033;-75
2022/12/04 07:45:47;;;;;;;28.77;13.10;;;4.80;99.90;;;;;;5035335;28;20503;-75
2022/12/04 07:48:13;;;;;;;28.85;13.07;;;4.80;99.90;;;;;;5065636;28;20028;-75
2022/12/04 07:50:38;;;;;;;26.23;12.98;;;4.80;99.90;;;;;;5055726;28;20114;-75
2022/12/04 07:53:04;;;;;;;28.08;13.93;;;4.80;99.90;;;;;;5045632;28;20036;-75
2022/12/04 07:55:29;;;;;;;29.98;15.00;;;4.70;99.90;;;;;;5042285;28;20116;-74
2022/12/04 07:57:55;;;;;;;25.90;13.65;;;4.80;99.90;;;;;;5038143;28;20025;-77
2022/12/04 08:00:21;;;;;;;25.33;14.13;;;4.70;99.90;;;;;;5033763;28;20396;-74
2022/12/04 08:02:46;;;;;;;30.05;13.80;;;4.70;99.90;;;;;;5045379;28;20080;-74
2022/12/04 08:05:12;;;;;;;27.65;13.70;;;4.70;99.90;;;;;;5048450;28;20041;-74
2022/12/04 08:07:37;;;;;;;29.20;14.57;;;4.80;99.90;;;;;;5036720;28;20040;-73
2022/12/04 08:10:04;;;;;;;28.30;14.20;;;4.70;99.90;;;;;;5053067;28;20075;-74
2022/12/04 08:12:31;;;;;;;30.98;14.70;;;4.80;99.90;;;;;;5047965;28;20756;-74
2022/12/04 08:14:57;;;;;;;30.75;14.57;;;4.70;99.90;;;;;;5041963;28;20051;-75
2022/12/04 08:17:23;;;;;;;28.92;14.80;;;4.70;99.90;;;;;;5040593;28;20403;-76
2022/12/04 08:19:48;;;;;;;27.50;13.52;;;4.70;99.90;;;;;;5037400;28;20555;-75
2022/12/04 08:22:14;;;;;;;29.60;14.82;;;4.70;99.90;;;;;;5046902;28;20037;-74
2022/12/04 08:24:40;;;;;;;26.40;14.10;;;4.70;99.90;;;;;;5036492;28;20030;-76
2022/12/04 08:27:05;;;;;;;29.33;15.02;;;4.70;99.90;;;;;;5036324;28;20036;-73
2022/12/04 08:29:31;;;;;;;27.20;13.80;;;4.70;99.90;;;;;;5035031;28;20041;-76
2022/12/04 08:31:57;;;;;;;30.98;14.93;;;4.60;99.90;;;;;;5039757;28;20132;-75
2022/12/04 08:34:23;;;;;;;28.67;14.45;;;4.70;99.90;;;;;;5042343;28;20087;-74
2022/12/04 08:36:48;;;;;;;31.42;15.02;;;4.70;99.90;;;;;;5041820;28;20045;-74
2022/12/04 08:39:14;;;;;;;30.13;15.82;;;4.70;99.90;;;;;;5050090;28;20039;-75
2022/12/04 08:41:40;;;;;;;30.08;13.93;;;4.60;99.90;;;;;;5040125;28;20630;-74
2022/12/04 08:44:05;;;;;;;32.00;15.75;;;4.70;99.90;;;;;;5058786;28;20032;-74
2022/12/04 08:46:31;;;;;;;31.10;15.27;;;4.60;99.90;;;;;;5046001;28;20041;-74
2022/12/04 08:48:57;;;;;;;30.23;15.30;;;4.60;99.90;;;;;;5041439;28;20025;-75
2022/12/04 08:51:28;;;;;;;30.40;15.15;;;4.60;99.90;;;;;;5062211;28;20483;-75
2022/12/04 08:53:56;;;;;;;31.40;15.82;;;4.70;99.90;;;;;;5055715;28;20029;-76
2022/12/04 08:56:23;;;;;;;31.60;15.98;;;4.70;99.90;;;;;;5042945;28;20033;-75
2022/12/04 08:58:49;;;;;;;35.33;16.92;;;4.70;99.90;;;;;;5037076;28;20189;-75
2022/12/04 09:01:15;;;;;;;32.05;15.68;;;4.70;99.90;;;;;;5044204;28;20112;-75
2022/12/04 09:03:41;;;;;;;30.73;17.27;;;4.70;99.90;;;;;;5064034;28;20040;-75
2022/12/04 09:06:09;;;;;;;32.60;15.85;;;4.70;99.90;;;;;;5053000;28;20692;-75
2022/12/04 09:08:36;;;;;;;34.65;16.80;;;4.70;99.90;;;;;;5064121;28;20544;-74
2022/12/04 09:11:06;;;;;;;31.67;16.73;;;4.70;99.90;;;;;;5056447;28;20033;-75
2022/12/04 09:13:32;;;;;;;38.60;17.55;;;4.70;99.90;;;;;;5043825;28;20821;-75
2022/12/04 09:15:58;;;;;;;34.70;17.00;;;4.70;99.90;;;;;;5033833;28;20073;-74
2022/12/04 09:18:23;;;;;;;35.15;16.73;;;4.80;99.90;;;;;;5053696;28;20398;-75
2022/12/04 09:21:00;;;;;;;34.45;17.08;;;4.80;99.90;;;;;;5047381;28;20028;-75
2022/12/04 09:23:26;;;;;;;31.83;15.70;;;4.80;99.90;;;;;;5050136;28;20663;-74
2022/12/04 09:25:52;;;;;;;38.00;16.52;;;4.80;99.90;;;;;;5053953;28;20029;-74
2022/12/04 09:28:19;;;;;;;34.25;16.88;;;4.80;99.90;;;;;;5052554;28;20082;-76
2022/12/04 09:30:54;;;;;;;35.60;16.55;;;4.80;99.90;;;;;;5053248;28;20444;-75
2022/12/04 09:33:19;;;;;;;37.90;17.73;;;4.80;99.90;;;;;;5038991;28;20067;-75
2022/12/04 09:35:45;;;;;;;32.55;16.40;;;4.90;99.90;;;;;;5055128;28;20090;-75
2022/12/04 09:38:10;;;;;;;32.60;16.42;;;4.90;99.90;;;;;;5050899;28;20501;-75
2022/12/04 09:40:58;;;;;;;30.20;16.02;;;4.90;99.90;;;;;;5042544;28;20037;-74
2022/12/04 09:43:52;;;;;;;33.33;16.80;;;4.90;99.90;;;;;;5043155;28;20050;-75
2022/12/04 09:46:36;;;;;;;36.72;16.80;;;4.90;99.90;;;;;;5038317;28;20086;-74
2022/12/04 09:49:08;;;;;;;33.75;16.65;;;4.90;99.90;;;;;;5047913;28;20091;-75
2022/12/04 09:51:34;;;;;;;32.85;17.13;;;4.90;99.90;;;;;;5055368;28;20152;-74
2022/12/04 09:54:09;;;;;;;31.27;15.70;;;4.90;99.90;;;;;;5043114;28;20036;-75
2022/12/04 09:56:34;;;;;;;33.08;16.40;;;5.00;99.90;;;;;;5041914;28;20040;-74
2022/12/04 09:59:23;;;;;;;37.80;17.80;;;5.00;99.90;;;;;;5039349;28;20104;-75
2022/12/04 10:02:01;;;;;;;36.10;17.45;;;5.00;99.90;;;;;;5033342;28;20065;-75
2022/12/04 10:04:27;;;;;;;33.70;16.70;;;5.00;99.90;;;;;;5036076;28;20029;-75
2022/12/04 10:07:06;;;;;;;34.65;17.23;;;5.00;99.90;;;;;;5043022;28;20074;-74
2022/12/04 10:09:50;;;;;;;34.03;16.52;;;5.00;99.90;;;;;;5036935;28;20706;-76
2022/12/04 10:12:39;;;;;;;33.80;16.35;;;5.10;99.90;;;;;;5030716;28;20028;-75
2022/12/04 10:15:24;;;;;;;32.72;16.67;;;5.10;99.90;;;;;;5033996;28;20648;-74
2022/12/04 10:18:40;;;;;;;33.40;17.10;;;5.10;99.90;;;;;;5049965;28;20053;-75
2022/12/04 10:21:18;;;;;;;33.03;17.17;;;5.10;99.90;;;;;;5018509;28;20025;-76
2022/12/04 10:23:49;;;;;;;35.70;17.13;;;5.10;99.90;;;;;;5031490;28;20041;-75
2022/12/04 10:26:17;;;;;;;35.70;17.85;;;5.10;99.90;;;;;;5037633;28;20068;-75
2022/12/04 10:28:49;;;;;;;35.28;18.00;;;5.20;99.90;;;;;;5042960;28;20037;-75
2022/12/04 10:31:15;;;;;;;34.35;17.02;;;5.20;99.90;;;;;;5040334;28;20048;-75
2022/12/04 10:33:41;;;;;;;35.85;17.45;;;5.30;99.90;;;;;;5040087;28;20029;-75
2022/12/04 10:36:12;;;;;;;33.05;17.67;;;5.30;99.90;;;;;;5036282;28;20492;-74
2022/12/04 10:38:52;;;;;;;39.17;17.98;;;5.40;99.90;;;;;;5050150;28;20031;-76
2022/12/04 10:41:20;;;;;;;36.67;18.45;;;5.40;99.90;;;;;;5038645;28;20037;-74
2022/12/04 10:43:48;;;;;;;36.55;18.15;;;5.40;99.90;;;;;;5035047;28;20090;-74
2022/12/04 10:46:28;;;;;;;35.53;17.08;;;5.40;99.90;;;;;;5027973;28;20040;-75
2022/12/04 10:49:01;;;;;;;33.65;16.98;;;5.40;99.90;;;;;;5035653;28;20025;-75
2022/12/04 10:51:37;;;;;;;27.38;14.10;;;5.40;99.90;;;;;;5031974;28;20132;-75
2022/12/04 10:54:22;;;;;;;33.38;14.90;;;5.50;99.90;;;;;;5035808;28;20037;-75
2022/12/04 10:56:55;;;;;;;30.65;15.50;;;5.50;99.90;;;;;;5036768;28;20069;-75
2022/12/04 10:59:22;;;;;;;26.83;14.32;;;5.50;99.90;;;;;;5033327;28;20056;-76
2022/12/04 11:01:49;;;;;;;27.25;13.35;;;5.60;99.90;;;;;;5040637;28;20064;-76
2022/12/04 11:04:26;;;;;;;28.67;14.43;;;5.50;99.90;;;;;;5039201;28;20047;-76
2022/12/04 11:07:07;;;;;;;27.60;13.70;;;5.60;99.90;;;;;;5040668;28;20110;-77
2022/12/04 11:09:33;;;;;;;26.23;13.57;;;5.60;99.90;;;;;;5065007;28;20029;-76
2022/12/04 11:12:08;;;;;;;27.58;13.23;;;5.70;99.90;;;;;;5029094;28;20112;-75
2022/12/04 11:14:34;;;;;;;24.20;12.05;;;5.70;99.90;;;;;;5036376;28;20116;-77
2022/12/04 11:17:04;;;;;;;22.77;12.05;;;5.70;99.90;;;;;;5036850;28;20247;-75
2022/12/04 11:19:35;;;;;;;22.75;12.75;;;5.70;99.90;;;;;;5038430;28;20098;-75
2022/12/04 11:22:14;;;;;;;25.00;12.27;;;5.70;99.90;;;;;;5051543;28;20036;-75
2022/12/04 11:24:41;;;;;;;24.00;12.52;;;5.80;99.90;;;;;;5030320;28;20105;-75
2022/12/04 11:27:20;;;;;;;23.15;12.15;;;5.80;99.90;;;;;;5066737;28;20037;-76
2022/12/04 11:29:46;;;;;;;23.90;12.23;;;5.80;99.90;;;;;;5048459;28;20051;-75
2022/12/04 11:32:25;;;;;;;24.35;11.93;;;5.80;99.90;;;;;;5038849;28;20071;-76
2022/12/04 11:34:52;;;;;;;24.40;12.00;;;5.90;99.90;;;;;;5038927;28;20539;-75
2022/12/04 11:37:32;;;;;;;23.05;11.38;;;5.90;99.90;;;;;;5040770;28;20037;-76
2022/12/04 11:39:58;;;;;;;23.27;11.57;;;5.90;99.90;;;;;;5038050;28;20030;-75
2022/12/04 11:42:27;;;;;;;22.98;11.57;;;6.00;99.90;;;;;;5034722;28;20025;-74
2022/12/04 11:44:56;;;;;;;21.47;11.07;;;6.00;99.90;;;;;;5037366;28;20036;-76
2022/12/04 11:47:26;;;;;;;22.60;12.15;;;6.00;99.90;;;;;;5034202;28;20025;-77
2022/12/04 11:50:11;;;;;;;21.40;11.77;;;6.00;99.90;;;;;;5035263;28;20025;-77
2022/12/04 11:52:37;;;;;;;17.88;10.48;;;6.00;99.90;;;;;;5049511;28;20044;-76
2022/12/04 11:55:16;;;;;;;19.77;10.80;;;6.10;99.90;;;;;;5035055;28;20037;-76
2022/12/04 11:58:15;;;;;;;20.42;10.73;;;6.10;99.90;;;;;;5040432;28;20021;-76
2022/12/04 12:00:55;;;;;;;23.00;10.48;;;6.10;99.90;;;;;;5040942;28;20033;-75
2022/12/04 12:03:21;;;;;;;19.70;9.98;;;6.10;99.90;;;;;;5039755;28;20051;-75
2022/12/04 12:06:05;;;;;;;18.95;10.18;;;6.10;99.90;;;;;;5035359;28;21474;-75
2022/12/04 12:08:37;;;;;;;17.23;8.38;;;6.20;99.90;;;;;;5036500;28;20029;-76
2022/12/04 12:11:17;;;;;;;20.23;9.60;;;6.20;99.90;;;;;;5039042;28;20036;-76
2022/12/04 12:14:04;;;;;;;16.70;7.80;;;6.20;99.90;;;;;;5038459;28;21525;-75
2022/12/04 12:16:50;;;;;;;15.23;7.85;;;6.20;99.90;;;;;;5035509;28;20025;-75
2022/12/04 12:19:38;;;;;;;15.52;8.18;;;6.30;99.90;;;;;;5044111;28;20071;-77
2022/12/04 12:22:24;;;;;;;16.02;8.13;;;6.30;99.90;;;;;;5044370;28;20505;-75
2022/12/04 12:24:59;;;;;;;17.10;9.38;;;6.20;99.90;;;;;;5041781;28;20419;-77
2022/12/04 12:27:44;;;;;;;15.18;8.27;;;6.20;99.90;;;;;;5038314;28;20377;-77
2022/12/04 12:30:16;;;;;;;15.77;8.73;;;6.20;99.90;;;;;;5036294;28;20040;-77
2022/12/04 12:33:00;;;;;;;15.98;8.35;;;6.20;99.90;;;;;;5039010;28;20025;-76
2022/12/04 12:35:38;;;;;;;19.58;9.85;;;6.30;99.90;;;;;;5040998;28;20465;-76
2022/12/04 12:38:33;;;;;;;18.75;10.02;;;6.30;99.90;;;;;;5034716;28;20033;-76
2022/12/04 12:41:06;;;;;;;20.00;9.25;;;6.30;99.90;;;;;;5062547;28;20721;-76
2022/12/04 12:43:37;;;;;;;19.55;9.63;;;6.30;99.90;;;;;;5036631;28;20369;-76
2022/12/04 12:46:29;;;;;;;20.27;9.43;;;6.30;99.90;;;;;;5036832;28;20036;-76
2022/12/04 12:49:00;;;;;;;21.58;10.75;;;6.30;99.90;;;;;;5045393;28;20112;-75
2022/12/04 12:51:47;;;;;;;17.85;9.90;;;6.30;99.90;;;;;;5039005;28;20036;-76
2022/12/04 12:54:36;;;;;;;17.48;10.18;;;6.30;99.90;;;;;;5045056;28;20021;-78
2022/12/04 12:57:10;;;;;;;19.33;10.30;;;6.30;99.90;;;;;;5062979;28;20037;-76
2022/12/04 12:59:39;;;;;;;18.48;9.73;;;6.30;99.90;;;;;;5046547;28;20116;-77
2022/12/04 13:02:18;;;;;;;22.25;10.50;;;6.30;99.90;;;;;;5045433;28;20117;-77
2022/12/04 13:04:49;;;;;;;20.80;10.80;;;6.20;99.90;;;;;;5040955;28;20146;-76
2022/12/04 13:07:18;;;;;;;19.20;9.98;;;6.20;99.90;;;;;;5035122;28;20586;-76
2022/12/04 13:09:49;;;;;;;19.25;10.80;;;6.20;99.90;;;;;;5037210;28;20494;-76
2022/12/04 13:12:17;;;;;;;20.23;10.70;;;6.10;99.90;;;;;;5028735;28;20041;-76